sensor_id;sensor_type;location;lat;lon;timestamp;temperature;humidity
5617;DHT22;2830;50.656;7.568;2023-05-29T00:00:43;11.20;99.90
5617;DHT22;2830;50.656;7.568;2023-05-29T00:03:10;11.00;99.90
5617;DHT22;2830;50.656;7.568;2023-05-29T00:05:37;11.10;99.90
5617;DHT22;2830;50.656;7.568;2023-05-29T00:08:04;11.00;99.90
5617;DHT22;2830;50.656;7.568;2023-05-29T00:10:30;10.90;99.90
5617;DHT22;2830;50.656;7.568;2023-05-29T00:12:57;10.80;99.90
5617;DHT22;2830;50.656;7.568;2023-05-29T00:15:24;10.80;99.90
5617;DHT22;2830;50.656;7.568;2023-05-29T00:17:51;10.70;99.90
5617;DHT22;2830;50.656;7.568;2023-05-29T00:20:19;10.80;99.90
5617;DHT22;2830;50.656;7.568;2023-05-29T00:22:46;10.70;99.90
5617;DHT22;2830;50.656;7.568;2023-05-29T00:25:14;10.60;99.90
5617;DHT22;2830;50.656;7.568;2023-05-29T00:27:41;10.60;99.90
5617;DHT22;2830;50.656;7.568;2023-05-29T00:30:08;10.60;99.90
5617;DHT22;2830;50.656;7.568;2023-05-29T00:32:35;10.60;99.90
5617;DHT22;2830;50.656;7.568;2023-05-29T00:35:02;10.50;99.90
5617;DHT22;2830;50.656;7.568;2023-05-29T00:37:29;10.50;99.90
5617;DHT22;2830;50.656;7.568;2023-05-29T00:39:56;10.40;99.90
5617;DHT22;2830;50.656;7.568;2023-05-29T00:42:22;10.50;99.90
5617;DHT22;2830;50.656;7.568;2023-05-29T00:44:49;10.50;99.90
5617;DHT22;2830;50.656;7.568;2023-05-29T00:47:16;10.60;99.90
5617;DHT22;2830;50.656;7.568;2023-05-29T00:49:43;10.40;99.90
5617;DHT22;2830;50.656;7.568;2023-05-29T00:52:10;10.30;99.90
5617;DHT22;2830;50.656;7.568;2023-05-29T00:54:37;10.20;99.90
5617;DHT22;2830;50.656;7.568;2023-05-29T00:57:04;10.20;99.90
5617;DHT22;2830;50.656;7.568;2023-05-29T00:59:32;10.30;99.90
5617;DHT22;2830;50.656;7.568;2023-05-29T01:02:01;10.20;99.90
5617;DHT22;2830;50.656;7.568;2023-05-29T01:04:29;10.20;99.90
5617;DHT22;2830;50.656;7.568;2023-05-29T01:06:56;10.20;99.90
5617;DHT22;2830;50.656;7.568;2023-05-29T01:09:23;10.20;99.90
5617;DHT22;2830;50.656;7.568;2023-05-29T01:12:43;10.30;99.90
5617;DHT22;2830;50.656;7.568;2023-05-29T01:15:04;10.20;99.90
5617;DHT22;2830;50.656;7.568;2023-05-29T01:23:24;10.10;99.90
5617;DHT22;2830;50.656;7.568;2023-05-29T01:26:07;10.00;99.90
5617;DHT22;2830;50.656;7.568;2023-05-29T01:28:41;10.00;99.90
5617;DHT22;2830;50.656;7.568;2023-05-29T01:31:10;9.90;99.90
5617;DHT22;2830;50.656;7.568;2023-05-29T01:33:41;9.80;99.90
5617;DHT22;2830;50.656;7.568;2023-05-29T01:36:08;9.80;99.90
5617;DHT22;2830;50.656;7.568;2023-05-29T01:38:35;9.70;99.90
5617;DHT22;2830;50.656;7.568;2023-05-29T01:41:03;9.80;99.90
5617;DHT22;2830;50.656;7.568;2023-05-29T01:43:30;9.70;99.90
5617;DHT22;2830;50.656;7.568;2023-05-29T01:45:57;9.70;99.90
5617;DHT22;2830;50.656;7.568;2023-05-29T01:48:24;9.60;99.90
5617;DHT22;2830;50.656;7.568;2023-05-29T01:50:52;9.60;99.90
5617;DHT22;2830;50.656;7.568;2023-05-29T01:53:19;9.60;99.90
5617;DHT22;2830;50.656;7.568;2023-05-29T01:55:46;9.50;99.90
5617;DHT22;2830;50.656;7.568;2023-05-29T01:58:14;9.50;99.90
5617;DHT22;2830;50.656;7.568;2023-05-29T02:00:41;9.40;99.90
5617;DHT22;2830;50.656;7.568;2023-05-29T02:03:08;9.40;99.90
5617;DHT22;2830;50.656;7.568;2023-05-29T02:05:38;9.30;99.90
5617;DHT22;2830;50.656;7.568;2023-05-29T02:08:05;9.30;99.90
5617;DHT22;2830;50.656;7.568;2023-05-29T02:10:32;9.30;99.90
5617;DHT22;2830;50.656;7.568;2023-05-29T02:12:58;9.20;99.90
5617;DHT22;2830;50.656;7.568;2023-05-29T02:15:25;9.30;99.90
5617;DHT22;2830;50.656;7.568;2023-05-29T02:17:52;9.30;99.90
5617;DHT22;2830;50.656;7.568;2023-05-29T02:20:19;9.20;99.90
5617;DHT22;2830;50.656;7.568;2023-05-29T02:22:46;9.20;99.90
5617;DHT22;2830;50.656;7.568;2023-05-29T02:25:13;9.10;99.90
5617;DHT22;2830;50.656;7.568;2023-05-29T02:27:39;9.10;99.90
5617;DHT22;2830;50.656;7.568;2023-05-29T02:30:07;9.10;99.90
5617;DHT22;2830;50.656;7.568;2023-05-29T02:32:34;9.10;99.90
5617;DHT22;2830;50.656;7.568;2023-05-29T02:35:01;9.00;99.90
5617;DHT22;2830;50.656;7.568;2023-05-29T02:37:28;9.00;99.90
5617;DHT22;2830;50.656;7.568;2023-05-29T02:39:55;9.00;99.90
5617;DHT22;2830;50.656;7.568;2023-05-29T02:42:21;9.00;99.90
5617;DHT22;2830;50.656;7.568;2023-05-29T02:44:48;8.90;99.90
5617;DHT22;2830;50.656;7.568;2023-05-29T02:47:15;9.00;99.90
5617;DHT22;2830;50.656;7.568;2023-05-29T02:49:41;8.90;99.90
5617;DHT22;2830;50.656;7.568;2023-05-29T02:52:08;8.90;99.90
5617;DHT22;2830;50.656;7.568;2023-05-29T02:54:35;8.80;99.90
5617;DHT22;2830;50.656;7.568;2023-05-29T02:57:01;8.70;99.90
5617;DHT22;2830;50.656;7.568;2023-05-29T02:59:28;8.60;99.90
5617;DHT22;2830;50.656;7.568;2023-05-29T03:01:55;8.60;99.90
5617;DHT22;2830;50.656;7.568;2023-05-29T03:04:22;8.70;99.90
5617;DHT22;2830;50.656;7.568;2023-05-29T03:06:49;8.80;99.90
5617;DHT22;2830;50.656;7.568;2023-05-29T03:09:15;8.80;99.90
5617;DHT22;2830;50.656;7.568;2023-05-29T03:11:43;8.80;99.90
5617;DHT22;2830;50.656;7.568;2023-05-29T03:14:11;8.70;99.90
5617;DHT22;2830;50.656;7.568;2023-05-29T03:16:37;8.80;99.90
5617;DHT22;2830;50.656;7.568;2023-05-29T03:19:04;8.80;99.90
5617;DHT22;2830;50.656;7.568;2023-05-29T03:21:31;8.70;99.90
5617;DHT22;2830;50.656;7.568;2023-05-29T03:23:58;8.60;99.90
5617;DHT22;2830;50.656;7.568;2023-05-29T03:26:25;8.60;99.90
5617;DHT22;2830;50.656;7.568;2023-05-29T03:28:52;8.70;99.90
5617;DHT22;2830;50.656;7.568;2023-05-29T03:31:19;8.70;99.90
5617;DHT22;2830;50.656;7.568;2023-05-29T03:33:47;8.60;99.90
5617;DHT22;2830;50.656;7.568;2023-05-29T03:36:14;8.60;99.90
5617;DHT22;2830;50.656;7.568;2023-05-29T03:38:40;8.60;99.90
5617;DHT22;2830;50.656;7.568;2023-05-29T03:41:07;8.60;99.90
5617;DHT22;2830;50.656;7.568;2023-05-29T03:43:34;8.60;99.90
5617;DHT22;2830;50.656;7.568;2023-05-29T03:46:00;8.50;99.90
5617;DHT22;2830;50.656;7.568;2023-05-29T03:48:27;8.50;99.90
5617;DHT22;2830;50.656;7.568;2023-05-29T03:50:54;8.60;99.90
5617;DHT22;2830;50.656;7.568;2023-05-29T03:53:20;8.60;99.90
5617;DHT22;2830;50.656;7.568;2023-05-29T03:55:47;8.70;99.90
5617;DHT22;2830;50.656;7.568;2023-05-29T03:58:14;8.70;99.90
5617;DHT22;2830;50.656;7.568;2023-05-29T04:00:40;8.70;99.90
5617;DHT22;2830;50.656;7.568;2023-05-29T04:03:08;8.60;99.90
5617;DHT22;2830;50.656;7.568;2023-05-29T04:05:35;8.60;99.90
5617;DHT22;2830;50.656;7.568;2023-05-29T04:08:02;8.70;99.90
5617;DHT22;2830;50.656;7.568;2023-05-29T04:10:41;8.70;99.90
5617;DHT22;2830;50.656;7.568;2023-05-29T04:13:08;8.70;99.90
5617;DHT22;2830;50.656;7.568;2023-05-29T04:15:34;8.70;99.90
5617;DHT22;2830;50.656;7.568;2023-05-29T04:18:01;8.80;99.90
5617;DHT22;2830;50.656;7.568;2023-05-29T04:20:28;8.80;99.90
5617;DHT22;2830;50.656;7.568;2023-05-29T04:22:55;8.80;99.90
5617;DHT22;2830;50.656;7.568;2023-05-29T04:25:22;8.90;99.90
5617;DHT22;2830;50.656;7.568;2023-05-29T04:27:49;8.90;99.90
5617;DHT22;2830;50.656;7.568;2023-05-29T04:30:16;8.80;99.90
5617;DHT22;2830;50.656;7.568;2023-05-29T04:32:42;9.00;99.90
5617;DHT22;2830;50.656;7.568;2023-05-29T04:35:09;9.10;99.90
5617;DHT22;2830;50.656;7.568;2023-05-29T04:37:37;9.00;99.90
5617;DHT22;2830;50.656;7.568;2023-05-29T04:40:06;9.00;99.90
5617;DHT22;2830;50.656;7.568;2023-05-29T04:42:36;9.10;99.90
5617;DHT22;2830;50.656;7.568;2023-05-29T04:45:03;9.30;99.90
5617;DHT22;2830;50.656;7.568;2023-05-29T04:47:33;9.40;99.90
5617;DHT22;2830;50.656;7.568;2023-05-29T04:50:00;9.50;99.90
5617;DHT22;2830;50.656;7.568;2023-05-29T04:52:27;9.70;99.90
5617;DHT22;2830;50.656;7.568;2023-05-29T04:54:54;9.80;99.90
5617;DHT22;2830;50.656;7.568;2023-05-29T04:57:21;9.90;99.90
5617;DHT22;2830;50.656;7.568;2023-05-29T04:59:48;10.00;99.90
5617;DHT22;2830;50.656;7.568;2023-05-29T05:02:15;10.00;99.90
5617;DHT22;2830;50.656;7.568;2023-05-29T05:04:41;10.10;99.90
5617;DHT22;2830;50.656;7.568;2023-05-29T05:07:09;10.00;99.90
5617;DHT22;2830;50.656;7.568;2023-05-29T05:09:36;10.10;99.90
5617;DHT22;2830;50.656;7.568;2023-05-29T05:12:03;10.20;99.90
5617;DHT22;2830;50.656;7.568;2023-05-29T05:14:29;10.40;99.90
5617;DHT22;2830;50.656;7.568;2023-05-29T05:16:56;10.50;99.90
5617;DHT22;2830;50.656;7.568;2023-05-29T05:19:23;10.90;99.90
5617;DHT22;2830;50.656;7.568;2023-05-29T05:21:49;11.50;99.90
5617;DHT22;2830;50.656;7.568;2023-05-29T05:24:18;12.10;99.90
5617;DHT22;2830;50.656;7.568;2023-05-29T05:26:45;12.80;99.90
5617;DHT22;2830;50.656;7.568;2023-05-29T05:29:12;13.10;99.90
5617;DHT22;2830;50.656;7.568;2023-05-29T05:31:38;13.00;99.90
5617;DHT22;2830;50.656;7.568;2023-05-29T05:34:05;13.50;99.90
5617;DHT22;2830;50.656;7.568;2023-05-29T05:36:32;13.90;99.60
5617;DHT22;2830;50.656;7.568;2023-05-29T05:38:59;14.50;99.00
5617;DHT22;2830;50.656;7.568;2023-05-29T05:41:26;15.10;97.40
5617;DHT22;2830;50.656;7.568;2023-05-29T05:43:53;15.50;97.70
5617;DHT22;2830;50.656;7.568;2023-05-29T05:46:19;16.10;96.80
5617;DHT22;2830;50.656;7.568;2023-05-29T05:48:46;16.20;96.70
5617;DHT22;2830;50.656;7.568;2023-05-29T05:51:13;16.80;96.10
5617;DHT22;2830;50.656;7.568;2023-05-29T05:53:40;17.30;95.20
5617;DHT22;2830;50.656;7.568;2023-05-29T05:56:07;17.80;94.30
5617;DHT22;2830;50.656;7.568;2023-05-29T05:58:33;18.30;94.10
5617;DHT22;2830;50.656;7.568;2023-05-29T06:01:00;18.70;93.30
5617;DHT22;2830;50.656;7.568;2023-05-29T06:03:27;19.00;91.90
5617;DHT22;2830;50.656;7.568;2023-05-29T06:05:54;19.10;91.30
5617;DHT22;2830;50.656;7.568;2023-05-29T06:08:21;19.20;91.50
5617;DHT22;2830;50.656;7.568;2023-05-29T06:10:48;19.20;90.60
5617;DHT22;2830;50.656;7.568;2023-05-29T06:13:15;19.40;90.70
5617;DHT22;2830;50.656;7.568;2023-05-29T06:15:43;19.70;89.50
5617;DHT22;2830;50.656;7.568;2023-05-29T06:18:10;19.60;90.10
5617;DHT22;2830;50.656;7.568;2023-05-29T06:20:37;19.50;89.60
5617;DHT22;2830;50.656;7.568;2023-05-29T06:23:04;19.20;90.00
5617;DHT22;2830;50.656;7.568;2023-05-29T06:25:31;19.30;89.30
5617;DHT22;2830;50.656;7.568;2023-05-29T06:28:01;19.60;88.40
5617;DHT22;2830;50.656;7.568;2023-05-29T06:30:28;19.50;86.50
5617;DHT22;2830;50.656;7.568;2023-05-29T06:32:55;19.60;88.40
5617;DHT22;2830;50.656;7.568;2023-05-29T06:35:22;19.70;86.30
5617;DHT22;2830;50.656;7.568;2023-05-29T06:37:48;19.80;85.30
5617;DHT22;2830;50.656;7.568;2023-05-29T06:40:15;19.90;85.20
5617;DHT22;2830;50.656;7.568;2023-05-29T06:42:42;19.90;82.20
5617;DHT22;2830;50.656;7.568;2023-05-29T06:45:12;20.00;85.60
5617;DHT22;2830;50.656;7.568;2023-05-29T06:47:43;20.10;84.70
5617;DHT22;2830;50.656;7.568;2023-05-29T06:50:10;20.60;81.50
5617;DHT22;2830;50.656;7.568;2023-05-29T06:52:37;21.00;80.40
5617;DHT22;2830;50.656;7.568;2023-05-29T06:55:04;21.10;80.50
5617;DHT22;2830;50.656;7.568;2023-05-29T06:57:31;21.10;79.70
5617;DHT22;2830;50.656;7.568;2023-05-29T06:59:57;21.30;79.90
5617;DHT22;2830;50.656;7.568;2023-05-29T07:02:24;21.60;78.40
5617;DHT22;2830;50.656;7.568;2023-05-29T07:04:51;21.80;75.00
5617;DHT22;2830;50.656;7.568;2023-05-29T07:07:18;21.70;76.30
5617;DHT22;2830;50.656;7.568;2023-05-29T07:09:45;21.80;74.20
5617;DHT22;2830;50.656;7.568;2023-05-29T07:12:11;21.90;75.90
5617;DHT22;2830;50.656;7.568;2023-05-29T07:14:38;21.60;75.50
5617;DHT22;2830;50.656;7.568;2023-05-29T07:17:05;21.80;75.30
5617;DHT22;2830;50.656;7.568;2023-05-29T07:19:32;21.90;77.60
5617;DHT22;2830;50.656;7.568;2023-05-29T07:22:00;22.20;76.40
5617;DHT22;2830;50.656;7.568;2023-05-29T07:24:27;22.60;74.70
5617;DHT22;2830;50.656;7.568;2023-05-29T07:26:54;22.70;73.50
5617;DHT22;2830;50.656;7.568;2023-05-29T07:29:22;22.60;73.60
5617;DHT22;2830;50.656;7.568;2023-05-29T07:31:50;22.90;69.50
5617;DHT22;2830;50.656;7.568;2023-05-29T07:34:18;22.90;70.80
5617;DHT22;2830;50.656;7.568;2023-05-29T07:37:17;23.20;70.30
5617;DHT22;2830;50.656;7.568;2023-05-29T07:39:45;23.80;67.50
5617;DHT22;2830;50.656;7.568;2023-05-29T07:42:12;24.00;66.90
5617;DHT22;2830;50.656;7.568;2023-05-29T07:44:39;23.80;67.50
5617;DHT22;2830;50.656;7.568;2023-05-29T07:47:08;23.80;67.10
5617;DHT22;2830;50.656;7.568;2023-05-29T07:49:35;24.20;66.70
5617;DHT22;2830;50.656;7.568;2023-05-29T07:52:03;24.90;64.40
5617;DHT22;2830;50.656;7.568;2023-05-29T07:54:33;25.40;62.20
5617;DHT22;2830;50.656;7.568;2023-05-29T07:57:00;26.00;59.90
5617;DHT22;2830;50.656;7.568;2023-05-29T07:59:29;26.40;59.80
5617;DHT22;2830;50.656;7.568;2023-05-29T08:01:56;26.80;58.80
5617;DHT22;2830;50.656;7.568;2023-05-29T08:04:24;26.60;56.50
5617;DHT22;2830;50.656;7.568;2023-05-29T08:06:51;26.50;57.10
5617;DHT22;2830;50.656;7.568;2023-05-29T08:09:18;26.50;58.50
5617;DHT22;2830;50.656;7.568;2023-05-29T08:11:45;26.50;57.80
5617;DHT22;2830;50.656;7.568;2023-05-29T08:14:14;26.40;59.30
5617;DHT22;2830;50.656;7.568;2023-05-29T08:16:42;26.50;56.20
5617;DHT22;2830;50.656;7.568;2023-05-29T08:19:11;26.60;56.80
5617;DHT22;2830;50.656;7.568;2023-05-29T08:21:38;26.40;56.80
5617;DHT22;2830;50.656;7.568;2023-05-29T08:24:04;26.50;57.70
5617;DHT22;2830;50.656;7.568;2023-05-29T08:26:32;27.00;56.80
5617;DHT22;2830;50.656;7.568;2023-05-29T08:28:58;27.10;58.50
5617;DHT22;2830;50.656;7.568;2023-05-29T08:31:25;27.10;58.90
5617;DHT22;2830;50.656;7.568;2023-05-29T08:33:54;27.20;56.60
5617;DHT22;2830;50.656;7.568;2023-05-29T08:36:26;27.00;56.70
5617;DHT22;2830;50.656;7.568;2023-05-29T08:38:53;27.40;57.30
5617;DHT22;2830;50.656;7.568;2023-05-29T08:41:59;27.60;55.60
5617;DHT22;2830;50.656;7.568;2023-05-29T08:44:30;27.30;55.90
5617;DHT22;2830;50.656;7.568;2023-05-29T08:47:01;27.10;56.50
5617;DHT22;2830;50.656;7.568;2023-05-29T08:49:39;27.60;55.00
5617;DHT22;2830;50.656;7.568;2023-05-29T08:52:14;28.20;54.10
5617;DHT22;2830;50.656;7.568;2023-05-29T08:54:41;28.60;54.80
5617;DHT22;2830;50.656;7.568;2023-05-29T08:57:14;28.30;53.40
5617;DHT22;2830;50.656;7.568;2023-05-29T08:59:45;28.40;53.00
5617;DHT22;2830;50.656;7.568;2023-05-29T09:02:13;29.00;55.40
5617;DHT22;2830;50.656;7.568;2023-05-29T09:04:41;29.50;51.50
5617;DHT22;2830;50.656;7.568;2023-05-29T09:07:12;29.10;51.60
5617;DHT22;2830;50.656;7.568;2023-05-29T09:09:39;29.50;53.20
5617;DHT22;2830;50.656;7.568;2023-05-29T09:12:06;29.50;50.40
5617;DHT22;2830;50.656;7.568;2023-05-29T09:14:38;29.70;49.50
5617;DHT22;2830;50.656;7.568;2023-05-29T09:17:07;29.70;50.20
5617;DHT22;2830;50.656;7.568;2023-05-29T09:19:35;30.10;51.30
5617;DHT22;2830;50.656;7.568;2023-05-29T09:22:06;30.40;50.60
5617;DHT22;2830;50.656;7.568;2023-05-29T09:24:36;30.40;49.50
5617;DHT22;2830;50.656;7.568;2023-05-29T09:27:03;30.90;49.70
5617;DHT22;2830;50.656;7.568;2023-05-29T09:29:42;30.40;48.30
5617;DHT22;2830;50.656;7.568;2023-05-29T09:32:15;30.70;47.90
5617;DHT22;2830;50.656;7.568;2023-05-29T09:34:43;30.80;47.80
5617;DHT22;2830;50.656;7.568;2023-05-29T09:37:11;31.30;48.90
5617;DHT22;2830;50.656;7.568;2023-05-29T09:39:45;31.20;46.70
5617;DHT22;2830;50.656;7.568;2023-05-29T09:42:16;31.80;46.90
5617;DHT22;2830;50.656;7.568;2023-05-29T09:44:44;31.30;49.20
5617;DHT22;2830;50.656;7.568;2023-05-29T09:47:17;30.90;46.20
5617;DHT22;2830;50.656;7.568;2023-05-29T09:49:44;30.80;50.60
5617;DHT22;2830;50.656;7.568;2023-05-29T09:52:14;31.50;46.50
5617;DHT22;2830;50.656;7.568;2023-05-29T09:54:43;31.70;46.50
5617;DHT22;2830;50.656;7.568;2023-05-29T09:57:14;31.40;47.00
5617;DHT22;2830;50.656;7.568;2023-05-29T09:59:46;30.70;46.30
5617;DHT22;2830;50.656;7.568;2023-05-29T10:02:18;30.70;48.80
5617;DHT22;2830;50.656;7.568;2023-05-29T10:04:45;31.10;48.50
5617;DHT22;2830;50.656;7.568;2023-05-29T10:07:21;31.00;46.50
5617;DHT22;2830;50.656;7.568;2023-05-29T10:09:55;31.20;50.10
5617;DHT22;2830;50.656;7.568;2023-05-29T10:12:26;31.20;49.00
5617;DHT22;2830;50.656;7.568;2023-05-29T10:14:57;31.00;47.00
5617;DHT22;2830;50.656;7.568;2023-05-29T10:17:28;31.10;48.70
5617;DHT22;2830;50.656;7.568;2023-05-29T10:19:58;31.50;48.80
5617;DHT22;2830;50.656;7.568;2023-05-29T10:22:28;31.60;46.30
5617;DHT22;2830;50.656;7.568;2023-05-29T10:24:56;31.60;46.90
5617;DHT22;2830;50.656;7.568;2023-05-29T10:27:23;31.90;46.60
5617;DHT22;2830;50.656;7.568;2023-05-29T10:29:59;31.80;45.30
5617;DHT22;2830;50.656;7.568;2023-05-29T10:32:37;31.60;44.70
5617;DHT22;2830;50.656;7.568;2023-05-29T10:35:18;31.60;43.70
5617;DHT22;2830;50.656;7.568;2023-05-29T10:38:02;31.90;46.50
5617;DHT22;2830;50.656;7.568;2023-05-29T10:40:36;32.50;44.00
5617;DHT22;2830;50.656;7.568;2023-05-29T10:43:02;32.50;45.40
5617;DHT22;2830;50.656;7.568;2023-05-29T10:50:43;33.20;44.40
5617;DHT22;2830;50.656;7.568;2023-05-29T10:53:14;33.30;45.70
5617;DHT22;2830;50.656;7.568;2023-05-29T10:55:41;32.50;45.50
5617;DHT22;2830;50.656;7.568;2023-05-29T10:58:14;31.80;46.50
5617;DHT22;2830;50.656;7.568;2023-05-29T11:00:42;32.40;44.90
5617;DHT22;2830;50.656;7.568;2023-05-29T11:03:10;32.30;40.80
5617;DHT22;2830;50.656;7.568;2023-05-29T11:06:02;32.70;40.90
5617;DHT22;2830;50.656;7.568;2023-05-29T11:11:15;33.20;44.60
5617;DHT22;2830;50.656;7.568;2023-05-29T11:13:56;33.40;42.60
5617;DHT22;2830;50.656;7.568;2023-05-29T11:19:03;32.50;41.80
5617;DHT22;2830;50.656;7.568;2023-05-29T11:24:27;32.00;40.90
5617;DHT22;2830;50.656;7.568;2023-05-29T11:26:56;31.90;41.50
5617;DHT22;2830;50.656;7.568;2023-05-29T11:29:27;32.20;42.80
5617;DHT22;2830;50.656;7.568;2023-05-29T11:32:06;32.40;41.70
5617;DHT22;2830;50.656;7.568;2023-05-29T11:34:40;32.70;38.60
5617;DHT22;2830;50.656;7.568;2023-05-29T11:37:07;32.30;42.00
5617;DHT22;2830;50.656;7.568;2023-05-29T11:39:37;32.70;38.60
5617;DHT22;2830;50.656;7.568;2023-05-29T11:42:04;32.60;39.20
5617;DHT22;2830;50.656;7.568;2023-05-29T11:44:33;32.70;39.10
5617;DHT22;2830;50.656;7.568;2023-05-29T11:47:04;32.90;40.60
5617;DHT22;2830;50.656;7.568;2023-05-29T11:49:33;32.80;41.20
5617;DHT22;2830;50.656;7.568;2023-05-29T11:52:11;32.70;38.70
5617;DHT22;2830;50.656;7.568;2023-05-29T11:54:43;32.10;39.90
5617;DHT22;2830;50.656;7.568;2023-05-29T11:57:19;31.60;42.10
5617;DHT22;2830;50.656;7.568;2023-05-29T11:59:47;31.50;41.60
5617;DHT22;2830;50.656;7.568;2023-05-29T12:02:14;31.50;40.60
5617;DHT22;2830;50.656;7.568;2023-05-29T12:04:41;31.40;43.30
5617;DHT22;2830;50.656;7.568;2023-05-29T12:07:18;30.90;43.10
5617;DHT22;2830;50.656;7.568;2023-05-29T12:09:45;30.70;43.70
5617;DHT22;2830;50.656;7.568;2023-05-29T12:12:12;30.70;44.90
5617;DHT22;2830;50.656;7.568;2023-05-29T12:14:38;30.60;43.70
5617;DHT22;2830;50.656;7.568;2023-05-29T12:17:05;30.80;46.70
5617;DHT22;2830;50.656;7.568;2023-05-29T12:19:32;31.00;42.80
5617;DHT22;2830;50.656;7.568;2023-05-29T12:21:59;29.60;42.30
5617;DHT22;2830;50.656;7.568;2023-05-29T12:24:26;29.80;43.20
5617;DHT22;2830;50.656;7.568;2023-05-29T12:26:57;30.10;42.90
5617;DHT22;2830;50.656;7.568;2023-05-29T12:29:32;30.00;43.80
5617;DHT22;2830;50.656;7.568;2023-05-29T12:32:00;30.20;41.50
5617;DHT22;2830;50.656;7.568;2023-05-29T12:34:34;30.20;42.90
5617;DHT22;2830;50.656;7.568;2023-05-29T12:37:07;30.40;44.00
5617;DHT22;2830;50.656;7.568;2023-05-29T12:39:40;30.60;45.50
5617;DHT22;2830;50.656;7.568;2023-05-29T12:42:06;30.20;43.10
5617;DHT22;2830;50.656;7.568;2023-05-29T12:44:34;29.90;43.20
5617;DHT22;2830;50.656;7.568;2023-05-29T12:47:00;29.70;45.40
5617;DHT22;2830;50.656;7.568;2023-05-29T12:49:27;30.00;47.60
5617;DHT22;2830;50.656;7.568;2023-05-29T12:52:04;30.20;47.00
5617;DHT22;2830;50.656;7.568;2023-05-29T12:54:34;29.90;44.70
5617;DHT22;2830;50.656;7.568;2023-05-29T12:57:00;29.30;45.00
5617;DHT22;2830;50.656;7.568;2023-05-29T12:59:28;28.50;45.80
5617;DHT22;2830;50.656;7.568;2023-05-29T13:01:55;28.20;47.50
5617;DHT22;2830;50.656;7.568;2023-05-29T13:04:21;27.80;46.70
5617;DHT22;2830;50.656;7.568;2023-05-29T13:06:48;27.80;50.00
5617;DHT22;2830;50.656;7.568;2023-05-29T13:09:15;27.80;48.50
5617;DHT22;2830;50.656;7.568;2023-05-29T13:11:42;28.10;49.70
5617;DHT22;2830;50.656;7.568;2023-05-29T13:14:09;28.10;51.10
5617;DHT22;2830;50.656;7.568;2023-05-29T13:16:36;28.10;49.60
5617;DHT22;2830;50.656;7.568;2023-05-29T13:19:02;28.00;49.90
5617;DHT22;2830;50.656;7.568;2023-05-29T13:21:29;27.90;48.10
5617;DHT22;2830;50.656;7.568;2023-05-29T13:23:56;27.70;51.10
5617;DHT22;2830;50.656;7.568;2023-05-29T13:26:22;27.70;51.60
5617;DHT22;2830;50.656;7.568;2023-05-29T13:28:50;27.80;52.40
5617;DHT22;2830;50.656;7.568;2023-05-29T13:31:18;27.80;51.90
5617;DHT22;2830;50.656;7.568;2023-05-29T13:33:47;27.70;49.60
5617;DHT22;2830;50.656;7.568;2023-05-29T13:36:14;27.60;51.70
5617;DHT22;2830;50.656;7.568;2023-05-29T13:38:41;27.10;51.70
5617;DHT22;2830;50.656;7.568;2023-05-29T13:41:07;27.30;53.20
5617;DHT22;2830;50.656;7.568;2023-05-29T13:43:34;27.00;51.00
5617;DHT22;2830;50.656;7.568;2023-05-29T13:46:10;27.00;53.30
5617;DHT22;2830;50.656;7.568;2023-05-29T13:48:37;26.80;52.50
5617;DHT22;2830;50.656;7.568;2023-05-29T13:51:04;26.10;53.70
5617;DHT22;2830;50.656;7.568;2023-05-29T13:53:32;26.20;53.50
5617;DHT22;2830;50.656;7.568;2023-05-29T13:55:58;26.40;54.60
5617;DHT22;2830;50.656;7.568;2023-05-29T13:58:25;26.40;54.30
5617;DHT22;2830;50.656;7.568;2023-05-29T14:00:52;26.40;53.60
5617;DHT22;2830;50.656;7.568;2023-05-29T14:03:19;26.10;52.40
5617;DHT22;2830;50.656;7.568;2023-05-29T14:05:48;26.00;54.30
5617;DHT22;2830;50.656;7.568;2023-05-29T14:08:15;25.80;53.20
5617;DHT22;2830;50.656;7.568;2023-05-29T14:10:41;25.50;54.80
5617;DHT22;2830;50.656;7.568;2023-05-29T14:13:08;25.60;55.20
5617;DHT22;2830;50.656;7.568;2023-05-29T14:15:36;25.60;56.40
5617;DHT22;2830;50.656;7.568;2023-05-29T14:18:06;25.70;53.80
5617;DHT22;2830;50.656;7.568;2023-05-29T14:20:35;25.20;54.30
5617;DHT22;2830;50.656;7.568;2023-05-29T14:23:02;24.90;55.70
5617;DHT22;2830;50.656;7.568;2023-05-29T14:25:28;24.80;56.30
5617;DHT22;2830;50.656;7.568;2023-05-29T14:27:55;24.70;58.00
5617;DHT22;2830;50.656;7.568;2023-05-29T14:30:22;24.60;56.50
5617;DHT22;2830;50.656;7.568;2023-05-29T14:32:49;24.50;58.50
5617;DHT22;2830;50.656;7.568;2023-05-29T14:35:15;24.40;57.50
5617;DHT22;2830;50.656;7.568;2023-05-29T14:37:42;24.40;58.50
5617;DHT22;2830;50.656;7.568;2023-05-29T14:40:09;24.40;58.70
5617;DHT22;2830;50.656;7.568;2023-05-29T14:42:36;24.30;58.00
5617;DHT22;2830;50.656;7.568;2023-05-29T14:45:03;24.20;59.40
5617;DHT22;2830;50.656;7.568;2023-05-29T14:47:31;24.20;59.30
5617;DHT22;2830;50.656;7.568;2023-05-29T14:49:57;24.10;59.00
5617;DHT22;2830;50.656;7.568;2023-05-29T14:52:24;24.30;59.40
5617;DHT22;2830;50.656;7.568;2023-05-29T14:54:51;24.10;59.70
5617;DHT22;2830;50.656;7.568;2023-05-29T14:57:18;24.20;59.50
5617;DHT22;2830;50.656;7.568;2023-05-29T14:59:44;24.10;59.30
5617;DHT22;2830;50.656;7.568;2023-05-29T15:02:11;24.00;59.40
5617;DHT22;2830;50.656;7.568;2023-05-29T15:04:38;24.00;58.20
5617;DHT22;2830;50.656;7.568;2023-05-29T15:07:05;24.10;61.30
5617;DHT22;2830;50.656;7.568;2023-05-29T15:09:33;24.00;59.60
5617;DHT22;2830;50.656;7.568;2023-05-29T15:12:00;23.90;59.40
5617;DHT22;2830;50.656;7.568;2023-05-29T15:14:27;23.70;60.60
5617;DHT22;2830;50.656;7.568;2023-05-29T15:16:54;23.70;62.60
5617;DHT22;2830;50.656;7.568;2023-05-29T15:19:22;23.70;60.70
5617;DHT22;2830;50.656;7.568;2023-05-29T15:21:48;23.40;59.70
5617;DHT22;2830;50.656;7.568;2023-05-29T15:24:15;23.50;60.70
5617;DHT22;2830;50.656;7.568;2023-05-29T15:26:42;23.60;61.10
5617;DHT22;2830;50.656;7.568;2023-05-29T15:29:08;23.50;59.80
5617;DHT22;2830;50.656;7.568;2023-05-29T15:31:35;23.50;59.20
5617;DHT22;2830;50.656;7.568;2023-05-29T15:34:02;23.40;61.00
5617;DHT22;2830;50.656;7.568;2023-05-29T15:36:29;23.30;60.40
5617;DHT22;2830;50.656;7.568;2023-05-29T15:38:55;23.20;61.50
5617;DHT22;2830;50.656;7.568;2023-05-29T15:41:22;23.20;60.30
5617;DHT22;2830;50.656;7.568;2023-05-29T15:43:55;23.00;61.10
5617;DHT22;2830;50.656;7.568;2023-05-29T15:46:29;22.90;60.70
5617;DHT22;2830;50.656;7.568;2023-05-29T15:48:56;23.00;64.00
5617;DHT22;2830;50.656;7.568;2023-05-29T15:51:23;22.90;61.40
5617;DHT22;2830;50.656;7.568;2023-05-29T15:53:51;22.90;62.20
5617;DHT22;2830;50.656;7.568;2023-05-29T15:56:18;22.90;62.00
5617;DHT22;2830;50.656;7.568;2023-05-29T15:58:45;23.00;62.20
5617;DHT22;2830;50.656;7.568;2023-05-29T16:01:12;23.00;62.10
5617;DHT22;2830;50.656;7.568;2023-05-29T16:03:39;22.80;61.10
5617;DHT22;2830;50.656;7.568;2023-05-29T16:06:05;22.60;61.40
5617;DHT22;2830;50.656;7.568;2023-05-29T16:08:32;22.60;61.10
5617;DHT22;2830;50.656;7.568;2023-05-29T16:10:59;22.40;62.00
5617;DHT22;2830;50.656;7.568;2023-05-29T16:13:27;22.20;63.10
5617;DHT22;2830;50.656;7.568;2023-05-29T16:15:54;22.20;62.20
5617;DHT22;2830;50.656;7.568;2023-05-29T16:18:21;22.10;63.00
5617;DHT22;2830;50.656;7.568;2023-05-29T16:20:49;21.90;63.20
5617;DHT22;2830;50.656;7.568;2023-05-29T16:23:16;21.80;62.60
5617;DHT22;2830;50.656;7.568;2023-05-29T16:25:46;21.70;63.50
5617;DHT22;2830;50.656;7.568;2023-05-29T16:28:13;21.70;62.20
5617;DHT22;2830;50.656;7.568;2023-05-29T16:30:40;21.50;63.00